Time;durP1;ratioP1;P1;durP2;ratioP2;P2;SDS_P1;SDS_P2;PMS_P1;PMS_P2;Temp;Humidity;BMP_temperature;BMP_pressure;BME280_temperature;BME280_humidity;BME280_pressure;Samples;Min_cycle;Max_cycle;Signal;HPM_P1;HPM_P2
2022/05/19 00:01:26;;;;;;;20.42;2.42;;;18.80;99.90;;;;;;4791207;29;20172;-91
2022/05/19 00:03:52;;;;;;;22.05;3.97;;;18.80;99.90;;;;;;4776145;29;20117;-90
2022/05/19 00:06:19;;;;;;;18.88;3.15;;;18.80;99.90;;;;;;4791000;29;20087;-91
2022/05/19 00:08:45;;;;;;;14.10;2.40;;;18.70;99.90;;;;;;4790924;29;20031;-90
2022/05/19 00:11:16;;;;;;;18.02;2.95;;;18.70;99.90;;;;;;4790609;29;20061;-91
2022/05/19 00:13:46;;;;;;;15.45;2.08;;;18.70;99.90;;;;;;4790546;29;20049;-90
2022/05/19 00:16:16;;;;;;;18.58;2.92;;;18.70;99.90;;;;;;4790749;29;20035;-91
2022/05/19 00:18:42;;;;;;;13.35;2.42;;;18.70;99.90;;;;;;4790877;29;20047;-90
2022/05/19 00:21:09;;;;;;;13.55;2.10;;;18.70;99.90;;;;;;4790696;29;20122;-90
2022/05/19 00:23:35;;;;;;;14.05;2.38;;;18.70;99.90;;;;;;4790670;29;20043;-91
2022/05/19 00:26:02;;;;;;;9.52;2.50;;;18.70;99.90;;;;;;4790818;29;20080;-91
2022/05/19 00:28:29;;;;;;;11.75;2.40;;;18.60;99.90;;;;;;4790858;29;20027;-90
2022/05/19 00:30:56;;;;;;;10.13;2.65;;;18.70;99.90;;;;;;4790694;29;20043;-91
2022/05/19 00:33:23;;;;;;;10.02;2.42;;;18.70;99.90;;;;;;4790719;29;20023;-91
2022/05/19 00:35:50;;;;;;;16.13;2.70;;;18.60;99.90;;;;;;4778549;29;20070;-90
2022/05/19 00:38:16;;;;;;;8.30;1.70;;;18.60;99.90;;;;;;4793982;29;20056;-91
2022/05/19 00:40:49;;;;;;;10.52;2.55;;;18.50;99.90;;;;;;4793719;29;20042;-91
2022/05/19 00:43:29;;;;;;;11.27;2.17;;;18.50;99.90;;;;;;4794747;29;20473;-91
2022/05/19 00:46:19;;;;;;;8.82;1.92;;;18.50;99.90;;;;;;4794171;29;20066;-91
2022/05/19 00:49:22;;;;;;;11.77;2.40;;;18.40;99.90;;;;;;4794044;29;20042;-90
2022/05/19 00:51:57;;;;;;;11.02;2.40;;;18.40;99.90;;;;;;4774021;29;20066;-91
2022/05/19 00:54:34;;;;;;;11.00;3.15;;;18.30;99.90;;;;;;4793936;29;20030;-90
2022/05/19 00:57:12;;;;;;;9.23;2.10;;;18.40;99.90;;;;;;4793714;29;20516;-91
2022/05/19 00:59:47;;;;;;;15.43;2.55;;;18.40;99.90;;;;;;4793838;29;20630;-91
2022/05/19 01:02:19;;;;;;;15.80;2.42;;;18.30;99.90;;;;;;4793508;29;20035;-90
2022/05/19 01:04:53;;;;;;;14.70;2.08;;;18.30;99.90;;;;;;4793619;29;20076;-90
2022/05/19 01:07:24;;;;;;;;;;;18.30;99.90;;;;;;4793924;29;20043;-90
2022/05/19 01:09:55;;;;;;;14.60;3.25;;;18.30;99.90;;;;;;4793925;29;19920;-90
2022/05/19 01:12:28;;;;;;;15.43;2.25;;;18.30;99.90;;;;;;4793739;29;20053;-90
2022/05/19 01:14:55;;;;;;;12.70;2.30;;;18.30;99.90;;;;;;4793397;29;20042;-90
2022/05/19 01:17:23;;;;;;;14.98;2.75;;;18.30;99.90;;;;;;4793596;29;20062;-89
2022/05/19 01:19:59;;;;;;;17.10;2.53;;;18.30;99.90;;;;;;4793062;29;20046;-91
2022/05/19 01:22:52;;;;;;;12.25;2.90;;;18.30;99.90;;;;;;4793397;29;20493;-91
2022/05/19 01:25:32;;;;;;;7.10;2.22;;;18.20;99.90;;;;;;4793290;29;20031;-90
2022/05/19 01:27:59;;;;;;;18.83;2.47;;;18.20;99.90;;;;;;4793653;29;20125;-90
2022/05/19 01:30:26;;;;;;;10.70;2.95;;;18.20;99.90;;;;;;4793222;29;20023;-91
2022/05/19 01:32:54;;;;;;;7.78;1.48;;;18.20;99.90;;;;;;4793257;29;20157;-90
2022/05/19 01:35:22;;;;;;;14.63;2.50;;;18.20;99.90;;;;;;4793133;29;20068;-91
2022/05/19 01:37:49;;;;;;;11.20;2.00;;;18.20;99.90;;;;;;4778165;29;20034;-90
2022/05/19 01:40:40;;;;;;;14.05;2.47;;;18.20;99.90;;;;;;4794301;29;20058;-91
2022/05/19 01:43:30;;;;;;;14.18;2.33;;;18.20;99.90;;;;;;4792990;29;20225;-91
2022/05/19 01:46:43;;;;;;;11.75;2.13;;;18.20;99.90;;;;;;4777845;29;20463;-90
2022/05/19 01:49:35;;;;;;;12.18;2.30;;;18.10;99.90;;;;;;4775771;29;20068;-91
2022/05/19 01:52:10;;;;;;;16.00;3.10;;;18.10;99.90;;;;;;4792947;29;20030;-90
2022/05/19 01:55:13;;;;;;;10.73;1.88;;;18.10;99.90;;;;;;4793082;29;20042;-90
2022/05/19 01:58:10;;;;;;;8.52;1.67;;;18.10;99.90;;;;;;4792904;29;20046;-90
2022/05/19 02:00:38;;;;;;;9.85;2.28;;;18.10;99.90;;;;;;4762320;29;20109;-90
2022/05/19 02:03:33;;;;;;;7.55;2.00;;;18.10;99.90;;;;;;4792577;29;20037;-90
2022/05/19 02:06:07;;;;;;;;;;;18.10;99.90;;;;;;4792940;29;20035;-90
2022/05/19 02:08:59;;;;;;;7.65;1.70;;;18.10;99.90;;;;;;4792679;29;19913;-90
2022/05/19 02:11:33;;;;;;;6.53;1.60;;;18.10;99.90;;;;;;4777367;29;20051;-91
2022/05/19 02:14:06;;;;;;;13.13;2.20;;;18.10;99.90;;;;;;4792510;29;20045;-91
2022/05/19 02:16:33;;;;;;;9.18;2.42;;;18.00;99.90;;;;;;4792702;29;20066;-90
2022/05/19 02:19:04;;;;;;;4.97;1.70;;;18.00;99.90;;;;;;4791959;29;20042;-90
2022/05/19 02:21:31;;;;;;;8.85;1.88;;;18.00;99.90;;;;;;4777436;29;20495;-91
2022/05/19 02:24:01;;;;;;;18.88;2.53;;;18.00;99.90;;;;;;4792387;29;20058;-90
2022/05/19 02:26:39;;;;;;;11.35;2.05;;;18.00;99.90;;;;;;4792297;29;20043;-90
2022/05/19 02:29:12;;;;;;;7.93;1.60;;;18.00;99.90;;;;;;4792724;29;20091;-90
2022/05/19 02:31:44;;;;;;;14.60;2.45;;;18.00;99.90;;;;;;4792367;29;20080;-90
2022/05/19 02:34:10;;;;;;;10.63;2.08;;;18.00;99.90;;;;;;4777236;29;20031;-91
2022/05/19 02:36:40;;;;;;;14.00;2.40;;;18.00;99.90;;;;;;4792057;29;20038;-90
2022/05/19 02:39:10;;;;;;;7.80;1.80;;;18.00;99.90;;;;;;4791843;29;20051;-90
2022/05/19 02:41:37;;;;;;;8.63;1.85;;;18.00;99.90;;;;;;4792083;29;20031;-91
2022/05/19 02:44:04;;;;;;;8.30;1.50;;;17.90;99.90;;;;;;4791985;29;20501;-91
2022/05/19 02:46:31;;;;;;;9.68;2.00;;;17.90;99.90;;;;;;4791868;29;20401;-91
2022/05/19 02:49:00;;;;;;;12.02;2.15;;;17.90;99.90;;;;;;4791941;29;20031;-90
2022/05/19 02:51:27;;;;;;;8.68;1.90;;;17.90;99.90;;;;;;4791906;29;20039;-90
2022/05/19 02:53:54;;;;;;;10.88;2.28;;;17.90;99.90;;;;;;4791794;29;20035;-91
2022/05/19 02:56:20;;;;;;;8.45;1.80;;;17.90;99.90;;;;;;4791780;29;20038;-90
2022/05/19 02:58:47;;;;;;;12.27;2.17;;;17.90;99.90;;;;;;4791148;29;20047;-91
2022/05/19 03:01:14;;;;;;;9.00;2.03;;;17.90;99.90;;;;;;4791521;29;20046;-90
2022/05/19 03:03:40;;;;;;;13.95;2.03;;;17.80;99.90;;;;;;4791606;29;20485;-90
2022/05/19 03:06:07;;;;;;;8.77;2.60;;;17.80;99.90;;;;;;4791410;29;20043;-91
2022/05/19 03:08:33;;;;;;;8.32;2.03;;;17.80;99.90;;;;;;4791488;29;20422;-90
2022/05/19 03:11:00;;;;;;;10.30;2.00;;;17.80;99.90;;;;;;4791498;29;20497;-90
2022/05/19 03:13:33;;;;;;;11.65;1.90;;;17.80;99.90;;;;;;4791344;29;20125;-91
2022/05/19 03:16:00;;;;;;;9.45;1.95;;;17.80;99.90;;;;;;4791639;29;20126;-89
2022/05/19 03:18:26;;;;;;;14.73;2.10;;;17.80;99.90;;;;;;4791593;29;20031;-91
2022/05/19 03:20:53;;;;;;;7.95;1.77;;;17.70;99.90;;;;;;4791097;29;20035;-90
2022/05/19 03:23:19;;;;;;;10.23;2.17;;;17.70;99.90;;;;;;4791534;29;20058;-89
2022/05/19 03:25:46;;;;;;;9.93;1.45;;;17.70;99.90;;;;;;4791578;29;20034;-90
2022/05/19 03:28:26;;;;;;;11.18;2.00;;;17.70;99.90;;;;;;4792065;29;20027;-89
2022/05/19 03:30:55;;;;;;;12.32;1.83;;;17.80;99.90;;;;;;4791920;29;20039;-88
2022/05/19 03:33:22;;;;;;;8.80;1.95;;;17.80;99.90;;;;;;4791270;29;20027;-90
2022/05/19 03:36:04;;;;;;;10.10;1.58;;;17.90;99.90;;;;;;4776371;29;20049;-87
2022/05/19 03:38:31;;;;;;;8.77;1.40;;;17.80;99.90;;;;;;4791035;29;20038;-89
2022/05/19 03:40:57;;;;;;;12.55;1.65;;;17.90;99.90;;;;;;4791120;29;20034;-90
2022/05/19 03:43:24;;;;;;;12.80;1.60;;;17.90;99.90;;;;;;4791153;29;20034;-91
2022/05/19 03:45:53;;;;;;;12.82;3.22;;;17.90;99.90;;;;;;4791332;29;20191;-90
2022/05/19 03:48:19;;;;;;;8.43;2.42;;;17.90;99.90;;;;;;4791014;29;20039;-90
2022/05/19 03:50:47;;;;;;;14.02;1.77;;;18.00;99.90;;;;;;4776168;29;20505;-91
2022/05/19 03:53:16;;;;;;;10.13;1.65;;;18.00;99.90;;;;;;4791198;29;20039;-89
2022/05/19 03:55:45;;;;;;;6.47;1.55;;;18.20;99.90;;;;;;4791382;29;20088;-90
2022/05/19 03:58:12;;;;;;;9.52;1.70;;;18.20;99.90;;;;;;4791171;29;20072;-90
2022/05/19 04:00:39;;;;;;;5.82;1.40;;;18.20;99.90;;;;;;4775832;29;20030;-90
2022/05/19 04:03:06;;;;;;;6.20;1.42;;;18.20;99.90;;;;;;4791028;29;20035;-89
2022/05/19 04:05:32;;;;;;;9.50;2.00;;;18.30;99.90;;;;;;4791582;29;20035;-90
2022/05/19 04:07:59;;;;;;;12.35;1.73;;;18.40;99.90;;;;;;4790818;29;20139;-90
2022/05/19 04:10:28;;;;;;;10.00;1.95;;;18.50;99.90;;;;;;4794354;29;20027;-90
2022/05/19 04:12:56;;;;;;;7.03;1.85;;;18.50;99.90;;;;;;4794347;29;20065;-88
2022/05/19 04:15:23;;;;;;;7.82;1.92;;;18.60;99.90;;;;;;4794411;29;20084;-90
2022/05/19 04:17:49;;;;;;;7.43;2.00;;;18.60;99.90;;;;;;4794239;29;20054;-90
2022/05/19 04:20:16;;;;;;;5.60;1.63;;;18.70;99.90;;;;;;4794466;29;20096;-90
2022/05/19 04:22:42;;;;;;;10.65;2.17;;;18.70;99.90;;;;;;4779568;29;20027;-92
2022/05/19 04:25:11;;;;;;;8.82;2.05;;;18.80;99.90;;;;;;4794093;29;20084;-90
2022/05/19 04:27:38;;;;;;;8.05;2.22;;;18.80;99.90;;;;;;4779334;29;20405;-89
2022/05/19 04:30:06;;;;;;;6.20;2.05;;;19.00;99.90;;;;;;4779466;29;20035;-90
2022/05/19 04:32:33;;;;;;;9.77;1.60;;;19.10;99.90;;;;;;4794346;29;20035;-90
2022/05/19 04:35:04;;;;;;;7.05;2.75;;;19.30;99.90;;;;;;4794563;29;20070;-89
2022/05/19 04:37:31;;;;;;;7.30;2.38;;;19.50;99.90;;;;;;4795024;29;20065;-89
2022/05/19 04:40:01;;;;;;;9.48;2.20;;;20.70;99.90;;;;;;4793971;29;20043;-90
2022/05/19 04:42:28;;;;;;;14.80;2.88;;;22.40;99.90;;;;;;4793925;29;20041;-90
2022/05/19 04:44:55;;;;;;;7.32;2.53;;;23.70;99.90;;;;;;4794085;29;20035;-89
2022/05/19 04:47:22;;;;;;;9.13;2.92;;;24.00;99.90;;;;;;4794121;29;20035;-90
2022/05/19 04:49:49;;;;;;;6.45;2.55;;;24.60;99.90;;;;;;4779032;29;20148;-89
2022/05/19 04:52:16;;;;;;;9.88;2.95;;;24.60;99.90;;;;;;4794131;29;20035;-90
2022/05/19 04:54:42;;;;;;;11.18;3.58;;;24.90;99.90;;;;;;4793780;29;20042;-89
2022/05/19 04:57:10;;;;;;;6.72;2.95;;;25.30;99.90;;;;;;4793414;29;20031;-90
2022/05/19 04:59:40;;;;;;;6.07;3.03;;;25.30;99.90;;;;;;4793583;29;20042;-90
2022/05/19 05:02:10;;;;;;;11.02;3.25;;;25.60;99.90;;;;;;4793646;29;20030;-88
2022/05/19 05:04:37;;;;;;;10.05;3.20;;;26.00;99.90;;;;;;4793739;29;20088;-88
2022/05/19 05:07:07;;;;;;;12.13;3.22;;;26.50;99.90;;;;;;4781110;29;20080;-91
2022/05/19 05:09:34;;;;;;;9.30;3.50;;;26.90;99.90;;;;;;4794558;29;20045;-90
2022/05/19 05:12:01;;;;;;;6.25;3.45;;;27.20;99.90;;;;;;4793103;29;20054;-89
2022/05/19 05:14:27;;;;;;;11.02;3.90;;;27.00;99.90;;;;;;4808051;29;20043;-93
2022/05/19 05:16:54;;;;;;;9.25;3.70;;;26.80;99.90;;;;;;4790475;29;20129;-92
2022/05/19 05:19:23;;;;;;;7.30;3.58;;;26.90;99.90;;;;;;4775247;30;20051;-90
2022/05/19 05:21:51;;;;;;;9.27;4.18;;;26.90;99.90;;;;;;4791914;29;20027;-89
2022/05/19 05:24:17;;;;;;;9.13;3.90;;;26.50;99.90;;;;;;4793593;29;20038;-91
2022/05/19 05:26:44;;;;;;;5.80;3.78;;;26.50;99.90;;;;;;4771736;30;20061;-91
2022/05/19 05:29:10;;;;;;;10.52;4.30;;;27.50;99.90;;;;;;4792458;29;20042;-91
2022/05/19 05:31:37;;;;;;;11.75;4.90;;;27.30;99.90;;;;;;4787983;29;20848;-89
2022/05/19 05:34:07;;;;;;;9.23;4.40;;;27.10;99.90;;;;;;4794303;29;20397;-92
2022/05/19 05:36:33;;;;;;;7.45;5.00;;;27.30;99.90;;;;;;4779111;30;20448;-93
2022/05/19 05:39:00;;;;;;;9.95;5.10;;;27.40;99.90;;;;;;4776682;30;20051;-92
2022/05/19 05:41:26;;;;;;;14.27;6.30;;;26.90;99.90;;;;;;4789047;29;20039;-92
2022/05/19 05:43:56;;;;;;;10.30;4.57;;;26.50;99.90;;;;;;4792773;30;20423;-90
2022/05/19 05:46:23;;;;;;;9.07;4.90;;;26.60;99.90;;;;;;4763235;30;20035;-91
2022/05/19 05:48:51;;;;;;;13.27;5.47;;;26.80;99.90;;;;;;4790156;30;20165;-90
2022/05/19 05:51:18;;;;;;;7.47;5.20;;;27.70;99.90;;;;;;4774980;30;20111;-92
2022/05/19 05:53:47;;;;;;;11.20;4.82;;;27.50;99.90;;;;;;4774637;30;20039;-91
2022/05/19 05:56:17;;;;;;;12.45;5.03;;;26.80;99.90;;;;;;4789775;29;20366;-92
2022/05/19 05:58:44;;;;;;;9.20;5.00;;;26.60;99.90;;;;;;4793321;29;20536;-92
2022/05/19 06:01:16;;;;;;;8.20;4.90;;;26.50;99.90;;;;;;4792914;29;20031;-92
2022/05/19 06:03:45;;;;;;;13.02;5.00;;;26.90;99.90;;;;;;4794185;29;20032;-91
2022/05/19 06:06:12;;;;;;;16.88;5.07;;;26.70;99.90;;;;;;4796276;29;20042;-90
2022/05/19 06:08:42;;;;;;;7.20;4.53;;;26.50;99.90;;;;;;4785306;29;20062;-91
2022/05/19 06:11:09;;;;;;;7.03;4.55;;;26.50;99.90;;;;;;4792425;29;20061;-92
2022/05/19 06:13:35;;;;;;;6.82;4.97;;;26.50;99.90;;;;;;4792648;29;20030;-91
2022/05/19 06:16:02;;;;;;;13.23;5.68;;;26.90;99.90;;;;;;4792617;29;20043;-92
2022/05/19 06:18:29;;;;;;;7.90;5.43;;;27.20;99.90;;;;;;4792678;29;20029;-92
2022/05/19 06:20:56;;;;;;;10.73;5.55;;;27.70;99.90;;;;;;4792623;29;20038;-92
2022/05/19 06:23:26;;;;;;;10.40;6.25;;;27.50;99.90;;;;;;4792378;29;20042;-92
2022/05/19 06:25:52;;;;;;;7.97;6.20;;;27.10;99.90;;;;;;4792486;29;20081;-92
2022/05/19 06:28:18;;;;;;;10.00;5.57;;;27.70;99.90;;;;;;4792455;29;20027;-93
2022/05/19 06:30:45;;;;;;;12.50;5.63;;;28.70;99.90;;;;;;4777386;29;20050;-93
2022/05/19 06:33:17;;;;;;;8.07;4.90;;;28.20;99.90;;;;;;4791756;29;20058;-92
2022/05/19 06:35:47;;;;;;;9.23;4.80;;;28.50;99.90;;;;;;4777589;29;20122;-92
2022/05/19 06:38:14;;;;;;;6.38;5.30;;;28.40;99.90;;;;;;4777616;29;20110;-93
2022/05/19 06:40:41;;;;;;;8.27;5.88;;;28.10;99.90;;;;;;4792188;29;20042;-92
2022/05/19 06:43:10;;;;;;;7.68;5.22;;;28.70;99.90;;;;;;4792682;29;20070;-91
2022/05/19 06:45:37;;;;;;;6.65;5.68;;;28.90;99.90;;;;;;4792233;29;20026;-92
2022/05/19 06:48:04;;;;;;;6.05;5.47;;;28.40;99.90;;;;;;4792801;29;20027;-92
2022/05/19 06:50:30;;;;;;;8.18;6.32;;;28.00;99.90;;;;;;4793424;29;20027;-93
2022/05/19 06:53:03;;;;;;;7.32;5.78;;;28.00;99.90;;;;;;4783216;29;20035;-93
2022/05/19 06:55:35;;;;;;;5.95;5.53;;;28.50;99.90;;;;;;4794945;29;20058;-92
2022/05/19 06:58:02;;;;;;;11.23;5.75;;;27.00;99.90;;;;;;4793094;29;20039;-92
2022/05/19 07:00:30;;;;;;;7.65;5.82;;;26.50;99.90;;;;;;4791936;29;20039;-93
2022/05/19 07:03:01;;;;;;;7.75;6.57;;;27.60;99.90;;;;;;4793005;29;20117;-93
2022/05/19 07:05:32;;;;;;;8.70;5.53;;;29.10;99.90;;;;;;4777080;29;20121;-93
2022/05/19 07:07:58;;;;;;;8.90;5.32;;;30.30;99.90;;;;;;4777312;29;20489;-94
2022/05/19 07:10:28;;;;;;;8.27;6.07;;;29.60;99.90;;;;;;4792331;29;20027;-93
2022/05/19 07:12:56;;;;;;;12.18;5.93;;;28.90;99.90;;;;;;4777158;29;20061;-92
2022/05/19 07:15:23;;;;;;;7.22;5.72;;;28.70;99.90;;;;;;4792041;29;20129;-93
2022/05/19 07:17:50;;;;;;;11.02;5.95;;;29.40;99.90;;;;;;4792140;29;20030;-93
2022/05/19 07:23:04;;;;;;;6.35;5.88;;;29.70;99.90;;;;;;4792520;29;20054;-93
2022/05/19 07:25:34;;;;;;;11.27;5.75;;;30.30;99.90;;;;;;4777509;29;20121;-92
2022/05/19 07:28:00;;;;;;;8.38;5.90;;;28.90;99.90;;;;;;4791998;29;20026;-93
2022/05/19 07:30:27;;;;;;;5.78;5.07;;;29.00;99.90;;;;;;4791284;29;20035;-92
2022/05/19 07:32:54;;;;;;;15.15;5.35;;;29.10;99.90;;;;;;4791524;29;20537;-92
2022/05/19 07:35:24;;;;;;;7.00;5.70;;;28.50;99.90;;;;;;4776341;29;20039;-91
2022/05/19 07:37:51;;;;;;;6.63;5.22;;;29.30;99.90;;;;;;4791212;29;20061;-92
2022/05/19 07:40:18;;;;;;;8.35;5.65;;;29.30;99.90;;;;;;4791185;29;20051;-90
2022/05/19 07:42:48;;;;;;;10.98;5.25;;;28.70;99.90;;;;;;4791051;29;20026;-92
2022/05/19 07:45:15;;;;;;;7.47;5.30;;;28.90;99.90;;;;;;4776126;29;20084;-92
2022/05/19 07:47:42;;;;;;;8.50;4.75;;;29.60;99.90;;;;;;4791153;29;20027;-89
2022/05/19 07:50:10;;;;;;;9.15;4.88;;;27.40;99.90;;;;;;4791096;29;20046;-92
2022/05/19 07:52:43;;;;;;;6.00;4.82;;;27.20;99.90;;;;;;4794971;29;20035;-94
2022/05/19 07:55:45;;;;;;;8.13;4.57;;;27.30;99.90;;;;;;5234597;24;20032;-94
2022/05/19 07:58:20;;;;;;;5.15;4.75;;;27.10;99.90;;;;;;4783448;30;20514;-94
2022/05/19 08:01:27;;;;;;;12.70;4.47;;;28.10;99.90;;;;;;4802892;24;20043;-94
2022/05/19 08:04:14;;;;;;;7.40;4.05;;;27.70;99.90;;;;;;4842430;24;20498;-94
2022/05/19 08:10:46;;;;;;;10.73;3.33;;;29.10;99.90;;;;;;4759793;30;20162;-91
2022/05/19 08:16:05;;;;;;;5.53;3.80;;;28.90;99.90;;;;;;4753528;30;20064;-92
2022/05/19 08:18:31;;;;;;;3.85;3.30;;;28.50;99.90;;;;;;4736030;30;20130;-92
2022/05/19 08:21:00;;;;;;;10.07;4.30;;;28.80;99.90;;;;;;4738479;30;20036;-92
2022/05/19 08:23:36;;;;;;;6.68;3.65;;;27.90;99.90;;;;;;4741334;30;20036;-92
2022/05/19 08:26:08;;;;;;;9.25;3.90;;;27.90;99.90;;;;;;4827384;24;20356;-94
2022/05/19 08:28:59;;;;;;;8.00;3.83;;;28.70;99.90;;;;;;4784972;30;20047;-92
2022/05/19 08:31:27;;;;;;;9.60;3.83;;;29.10;99.90;;;;;;4777695;30;20032;-93
2022/05/19 08:33:56;;;;;;;11.68;4.38;;;29.10;99.90;;;;;;4764509;30;20050;-90
2022/05/19 08:36:25;;;;;;;7.32;3.88;;;29.10;99.90;;;;;;4763484;30;20614;-90
2022/05/19 08:38:57;;;;;;;10.75;3.95;;;28.30;99.90;;;;;;4770188;30;20043;-93
2022/05/19 08:41:51;;;;;;;9.88;3.75;;;27.60;99.90;;;;;;4765502;30;20044;-92
2022/05/19 08:44:44;;;;;;;4.68;3.60;;;28.00;99.90;;;;;;4767269;30;20047;-91
2022/05/19 08:47:37;;;;;;;7.80;3.90;;;28.60;99.90;;;;;;4766486;30;20055;-92
2022/05/19 08:50:32;;;;;;;8.35;4.35;;;28.60;99.90;;;;;;4754830;30;20032;-91
2022/05/19 08:53:11;;;;;;;7.82;3.80;;;27.30;99.90;;;;;;4716475;30;20076;-90
2022/05/19 08:55:47;;;;;;;5.40;3.13;;;25.90;99.90;;;;;;4713997;30;20032;-92
2022/05/19 08:58:49;;;;;;;6.13;3.60;;;25.50;99.90;;;;;;4704570;30;20054;-92
2022/05/19 09:01:46;;;;;;;6.47;3.67;;;25.80;99.90;;;;;;4704399;30;20050;-90
2022/05/19 09:04:47;;;;;;;12.50;3.50;;;26.60;99.90;;;;;;4705643;30;20041;-92
2022/05/19 09:10:45;;;;;;;7.82;4.15;;;26.50;99.90;;;;;;4716238;30;20041;-91
2022/05/19 09:13:24;;;;;;;8.55;3.40;;;26.90;99.90;;;;;;4701168;30;20046;-91
2022/05/19 09:15:57;;;;;;;8.52;3.60;;;27.10;99.90;;;;;;4723277;30;20045;-92
2022/05/19 09:18:39;;;;;;;10.63;4.00;;;27.00;99.90;;;;;;4713206;30;20049;-90
2022/05/19 09:21:08;;;;;;;9.38;3.42;;;26.70;99.90;;;;;;4731710;30;20045;-92
2022/05/19 09:23:40;;;;;;;11.68;2.92;;;27.00;99.90;;;;;;4731260;30;20057;-92
2022/05/19 09:26:26;;;;;;;10.43;3.70;;;27.20;99.90;;;;;;4744914;30;20049;-92
2022/05/19 09:28:59;;;;;;;8.20;2.90;;;27.20;99.90;;;;;;4733764;30;20061;-92
2022/05/19 09:31:50;;;;;;;12.70;3.13;;;26.90;99.90;;;;;;4770619;30;20099;-91
2022/05/19 09:34:24;;;;;;;6.93;3.08;;;26.60;99.90;;;;;;4800015;30;20036;-91
2022/05/19 09:37:05;;;;;;;9.48;3.10;;;26.60;99.90;;;;;;4801300;30;20096;-91
2022/05/19 09:39:48;;;;;;;8.32;3.33;;;26.20;99.90;;;;;;4771114;30;20047;-89
2022/05/19 09:42:23;;;;;;;9.73;3.28;;;25.70;99.90;;;;;;4783515;30;20063;-92
2022/05/19 09:44:57;;;;;;;11.30;3.97;;;25.90;99.90;;;;;;4788007;30;20036;-90
2022/05/19 09:47:32;;;;;;;10.50;4.65;;;26.20;99.90;;;;;;4801112;29;20044;-90
2022/05/19 09:50:19;;;;;;;7.45;3.78;;;26.60;99.90;;;;;;4771157;30;20035;-91
2022/05/19 09:52:46;;;;;;;5.75;3.75;;;27.10;99.90;;;;;;4802091;29;20043;-89
2022/05/19 09:55:16;;;;;;;18.50;4.25;;;27.20;99.90;;;;;;4766644;30;20297;-91
2022/05/19 09:57:57;;;;;;;9.20;3.95;;;26.50;99.90;;;;;;4767857;30;20076;-89
2022/05/19 10:00:32;;;;;;;9.80;3.50;;;25.60;99.90;;;;;;4769928;30;20052;-90
2022/05/19 10:03:01;;;;;;;6.50;3.10;;;25.50;99.90;;;;;;4767737;30;20043;-90
2022/05/19 10:05:47;;;;;;;7.15;3.70;;;25.80;99.90;;;;;;4751435;30;20032;-91
2022/05/19 10:08:19;;;;;;;8.93;3.50;;;26.10;99.90;;;;;;4764586;30;20050;-91
2022/05/19 10:10:59;;;;;;;11.27;4.80;;;26.30;99.90;;;;;;4778665;30;20097;-89
2022/05/19 10:13:38;;;;;;;10.02;4.45;;;25.90;99.90;;;;;;4778216;30;20048;-89
2022/05/19 10:16:35;;;;;;;15.00;4.88;;;25.60;99.90;;;;;;4766844;30;20035;-89
2022/05/19 10:19:30;;;;;;;11.70;5.13;;;25.70;99.90;;;;;;4800097;30;20054;-89
2022/05/19 10:22:10;;;;;;;11.07;3.92;;;25.40;99.90;;;;;;4787676;30;20031;-90
2022/05/19 10:24:56;;;;;;;6.82;3.63;;;25.20;99.90;;;;;;4772594;30;20074;-89
2022/05/19 10:31:07;;;;;;;6.68;3.42;;;25.40;99.90;;;;;;4764492;30;20089;-91
2022/05/19 10:33:39;;;;;;;11.57;4.20;;;25.50;99.90;;;;;;4757077;30;20559;-91
2022/05/19 10:36:35;;;;;;;5.18;3.83;;;25.60;99.90;;;;;;4786684;29;20040;-91
2022/05/19 10:39:29;;;;;;;6.00;3.42;;;25.60;99.90;;;;;;4757844;30;20059;-91
2022/05/19 10:42:10;;;;;;;6.80;3.67;;;25.70;99.90;;;;;;4757656;30;20042;-92
2022/05/19 10:45:15;;;;;;;5.57;4.03;;;25.30;99.90;;;;;;4759406;30;20114;-92
2022/05/19 10:48:00;;;;;;;9.90;3.63;;;25.50;99.90;;;;;;4756893;30;20032;-90
2022/05/19 10:50:49;;;;;;;7.13;3.80;;;25.80;99.90;;;;;;4756506;30;20032;-91
2022/05/19 10:53:39;;;;;;;4.85;3.70;;;25.90;99.90;;;;;;4756393;30;20035;-91
2022/05/19 10:56:19;;;;;;;9.77;3.97;;;25.40;99.90;;;;;;4756396;30;20036;-91
2022/05/19 10:59:18;;;;;;;6.05;4.10;;;25.20;99.90;;;;;;4771363;30;20494;-90
2022/05/19 11:02:21;;;;;;;7.25;4.13;;;25.40;99.90;;;;;;4756514;30;20040;-94
2022/05/19 11:05:20;;;;;;;8.23;3.85;;;25.50;99.90;;;;;;4756220;30;20032;-91
2022/05/19 11:08:16;;;;;;;6.82;3.60;;;25.60;99.90;;;;;;4756010;30;20036;-92
2022/05/19 11:11:28;;;;;;;8.38;4.00;;;25.40;99.90;;;;;;4755974;30;20044;-91
2022/05/19 11:14:16;;;;;;;8.23;3.30;;;25.50;99.90;;;;;;4756002;30;20032;-92
2022/05/19 11:16:52;;;;;;;3.78;3.35;;;25.50;99.90;;;;;;4741472;30;20112;-90
2022/05/19 11:19:33;;;;;;;6.03;4.00;;;25.30;99.90;;;;;;4755231;30;20047;-90
2022/05/19 11:22:11;;;;;;;6.85;3.75;;;25.60;99.90;;;;;;4755608;30;20031;-90
2022/05/19 11:28:41;;;;;;;4.70;3.92;;;25.60;99.90;;;;;;4755863;30;20059;-93
2022/05/19 11:31:16;;;;;;;4.30;3.78;;;25.60;99.90;;;;;;4685660;30;20048;-91
2022/05/19 11:33:49;;;;;;;10.82;4.35;;;25.50;99.90;;;;;;4749337;30;20051;-93
2022/05/19 11:36:33;;;;;;;6.18;3.65;;;25.30;99.90;;;;;;4882814;24;20059;-93
2022/05/19 11:39:47;;;;;;;4.18;3.78;;;25.30;99.90;;;;;;4792152;24;20476;-92
2022/05/19 11:43:05;;;;;;;5.68;3.75;;;25.60;99.90;;;;;;4914052;24;20091;-93
2022/05/19 11:46:33;;;;;;;5.55;4.18;;;25.90;99.90;;;;;;4868336;24;20047;-92
2022/05/19 12:32:19;;;;;;;7.75;4.18;;;25.30;99.90;;;;;;5845171;24;21032;31
2022/05/19 12:35:00;;;;;;;8.07;4.40;;;25.10;99.90;;;;;;4781495;24;20469;-93
2022/05/19 12:37:51;;;;;;;4.60;4.20;;;25.30;99.90;;;;;;4773387;30;20040;-92
2022/05/19 12:40:21;;;;;;;5.00;4.20;;;25.30;99.90;;;;;;4773320;30;20126;-92
2022/05/19 12:42:49;;;;;;;5.32;4.10;;;25.20;99.90;;;;;;4786442;30;20036;-92
2022/05/19 12:45:21;;;;;;;6.43;3.67;;;25.40;99.90;;;;;;4776120;30;20035;-92
2022/05/19 12:47:57;;;;;;;5.78;3.95;;;25.40;99.90;;;;;;4777387;30;20035;-93
2022/05/19 12:50:43;;;;;;;7.25;4.03;;;25.30;99.90;;;;;;4790960;29;20118;-94
2022/05/19 12:53:25;;;;;;;6.10;4.25;;;25.00;99.90;;;;;;4776553;30;20085;-93
2022/05/19 12:55:54;;;;;;;6.43;4.55;;;24.80;99.90;;;;;;4791286;30;20036;-93
2022/05/19 12:58:46;;;;;;;7.43;4.60;;;24.80;99.90;;;;;;4776094;30;20063;-91
2022/05/19 13:01:24;;;;;;;5.65;4.13;;;24.70;99.90;;;;;;4790799;29;20051;-92
2022/05/19 13:04:13;;;;;;;4.65;4.05;;;24.70;99.90;;;;;;4776182;30;20032;-91
2022/05/19 13:07:18;;;;;;;4.63;4.30;;;24.80;99.90;;;;;;4776960;30;20039;-92
2022/05/19 13:10:12;;;;;;;4.30;3.92;;;24.90;99.90;;;;;;4791096;29;20031;-92
2022/05/19 13:13:04;;;;;;;6.60;5.17;;;25.10;99.90;;;;;;4777139;30;20091;-92
2022/05/19 13:15:45;;;;;;;4.90;4.00;;;25.10;99.90;;;;;;4791979;30;20028;-92
2022/05/19 13:18:12;;;;;;;4.78;4.20;;;24.90;99.90;;;;;;4792168;30;20402;-92
2022/05/19 13:20:40;;;;;;;6.28;4.32;;;25.00;99.90;;;;;;4762017;30;20063;-94
2022/05/19 13:23:32;;;;;;;5.88;4.93;;;25.00;99.90;;;;;;4795091;29;20061;-94
2022/05/19 13:26:06;;;;;;;5.68;4.75;;;24.90;99.90;;;;;;4778208;30;20043;-92
2022/05/19 13:31:26;;;;;;;5.65;4.90;;;25.00;99.90;;;;;;4777464;29;20455;-92
2022/05/19 13:33:59;;;;;;;7.20;5.07;;;25.00;99.90;;;;;;4793188;30;20479;-92
2022/05/19 13:36:36;;;;;;;5.47;4.97;;;24.90;99.90;;;;;;4780358;30;20146;-92
2022/05/19 13:39:15;;;;;;;5.00;4.70;;;24.90;99.90;;;;;;4776931;30;20043;-92
2022/05/19 13:41:47;;;;;;;5.28;4.88;;;24.80;99.90;;;;;;4775827;30;20053;-91
2022/05/19 13:44:27;;;;;;;6.53;4.95;;;25.00;99.90;;;;;;4776022;30;20126;-92
2022/05/19 13:46:57;;;;;;;5.65;5.25;;;25.20;99.90;;;;;;4775561;30;20085;-92
2022/05/19 13:49:25;;;;;;;5.30;4.90;;;25.20;99.90;;;;;;4791502;29;20046;-95
2022/05/19 13:51:55;;;;;;;7.63;5.05;;;25.10;99.90;;;;;;4782195;30;20028;-94
2022/05/19 13:54:36;;;;;;;8.77;4.78;;;24.70;99.90;;;;;;4781382;30;20043;-92
2022/05/19 13:57:07;;;;;;;5.35;4.88;;;24.70;99.90;;;;;;4793886;30;20040;-94
2022/05/19 13:59:34;;;;;;;5.07;4.78;;;24.80;99.90;;;;;;4792064;29;20126;-92
2022/05/19 14:02:06;;;;;;;5.03;4.72;;;24.70;99.90;;;;;;4776108;30;20047;-94
2022/05/19 14:04:42;;;;;;;9.90;5.57;;;24.80;99.90;;;;;;4776327;30;20045;-94
2022/05/19 14:07:12;;;;;;;5.68;5.28;;;24.90;99.90;;;;;;4777086;30;20038;-95
2022/05/19 14:09:50;;;;;;;5.82;5.40;;;24.90;99.90;;;;;;4779409;30;20558;-93
2022/05/19 14:12:25;;;;;;;6.38;5.22;;;25.00;99.90;;;;;;4809647;29;20031;-91
2022/05/19 14:15:01;;;;;;;5.45;5.15;;;25.00;99.90;;;;;;4779186;30;20039;-94
2022/05/19 14:17:36;;;;;;;5.40;5.20;;;25.00;99.70;;;;;;4790779;30;20478;-94
2022/05/19 14:20:07;;;;;;;5.38;5.10;;;25.00;99.30;;;;;;4775336;30;20088;-94
2022/05/19 14:22:35;;;;;;;5.75;5.45;;;25.00;99.60;;;;;;4774991;30;20031;-92
2022/05/19 14:25:09;;;;;;;7.95;5.63;;;24.70;99.70;;;;;;4775015;30;20096;-92
2022/05/19 14:27:38;;;;;;;6.45;5.88;;;24.80;99.80;;;;;;4774762;30;20027;-92